Time;durP1;ratioP1;P1;durP2;ratioP2;P2;SDS_P1;SDS_P2;PMS_P1;PMS_P2;Temp;Humidity;BMP_temperature;BMP_pressure;BME280_temperature;BME280_humidity;BME280_pressure;Samples;Min_cycle;Max_cycle;Signal;HPM_P1;HPM_P2
2022/03/18 00:00:21;;;;;;;20.27;10.15;;;3.00;99.90;;;;;;4987855;28;20544;-80
2022/03/18 00:02:48;;;;;;;15.10;8.65;;;3.20;99.90;;;;;;4983288;28;20080;-79
2022/03/18 00:05:13;;;;;;;20.23;10.00;;;3.20;99.90;;;;;;5003775;28;20421;-79
2022/03/18 00:07:40;;;;;;;16.45;8.73;;;3.10;99.90;;;;;;5006808;28;20040;-78
2022/03/18 00:10:07;;;;;;;17.58;9.35;;;3.00;99.90;;;;;;4977895;28;20061;-78
2022/03/18 00:12:33;;;;;;;17.35;10.45;;;2.90;99.90;;;;;;4986385;28;20048;-79
2022/03/18 00:14:59;;;;;;;24.15;10.93;;;2.80;99.90;;;;;;4987360;28;20060;-78
2022/03/18 00:17:25;;;;;;;20.27;10.07;;;2.70;99.90;;;;;;4992127;28;20044;-78
2022/03/18 00:19:51;;;;;;;15.57;9.98;;;2.80;99.90;;;;;;4985764;28;20091;-79
2022/03/18 00:22:16;;;;;;;26.40;10.48;;;2.80;99.90;;;;;;4970689;28;20037;-79
2022/03/18 00:24:42;;;;;;;21.30;11.10;;;2.80;99.90;;;;;;4990021;28;20473;-78
2022/03/18 00:27:08;;;;;;;21.38;11.45;;;2.70;99.90;;;;;;5003336;28;20021;-78
2022/03/18 00:29:34;;;;;;;22.95;12.00;;;2.50;99.90;;;;;;5002909;28;20034;-78
2022/03/18 00:32:00;;;;;;;21.65;11.18;;;2.30;99.90;;;;;;4987727;28;20397;-79
2022/03/18 00:34:25;;;;;;;23.27;12.25;;;2.20;99.90;;;;;;4989922;28;20122;-78
2022/03/18 00:36:52;;;;;;;22.00;11.55;;;2.20;99.90;;;;;;4974844;28;20026;-79
2022/03/18 00:39:18;;;;;;;24.70;12.23;;;2.20;99.90;;;;;;4986745;28;20140;-79
2022/03/18 00:41:43;;;;;;;21.48;11.85;;;2.10;99.90;;;;;;4986372;28;20077;-78
2022/03/18 00:44:09;;;;;;;23.05;12.13;;;2.10;99.90;;;;;;4986223;28;20044;-78
2022/03/18 00:46:34;;;;;;;20.30;12.60;;;2.20;99.90;;;;;;5004757;28;20025;-78
2022/03/18 00:54:28;;;;;;;20.00;11.60;;;2.00;99.90;;;;;;4988336;28;20536;-78
2022/03/18 00:56:54;;;;;;;22.27;12.95;;;2.00;99.90;;;;;;4971717;28;20065;-78
2022/03/18 00:59:19;;;;;;;27.02;12.10;;;2.00;99.90;;;;;;4988636;28;20038;-77
2022/03/18 01:01:45;;;;;;;23.38;12.23;;;2.00;99.90;;;;;;4991173;28;20034;-78
2022/03/18 01:04:10;;;;;;;26.88;12.27;;;1.80;99.90;;;;;;4974810;28;20716;-77
2022/03/18 01:06:36;;;;;;;19.20;12.52;;;1.80;99.90;;;;;;4991996;28;20036;-78
2022/03/18 01:09:05;;;;;;;23.27;12.80;;;1.80;99.90;;;;;;4970747;28;20053;-78
2022/03/18 01:11:31;;;;;;;22.55;12.60;;;1.90;99.90;;;;;;4986456;28;20068;-79
2022/03/18 01:13:56;;;;;;;21.75;12.13;;;1.90;99.90;;;;;;5006661;28;20030;-78
2022/03/18 01:16:22;;;;;;;22.92;13.25;;;1.80;99.90;;;;;;4994890;28;20033;-78
2022/03/18 01:18:48;;;;;;;19.92;12.63;;;1.90;99.90;;;;;;4968294;28;20026;-78
2022/03/18 01:21:13;;;;;;;21.45;12.57;;;1.80;99.90;;;;;;4986618;28;20038;-77
2022/03/18 01:23:39;;;;;;;17.90;10.60;;;1.80;99.90;;;;;;4993683;28;20064;-79
2022/03/18 01:26:04;;;;;;;21.83;11.90;;;1.90;99.90;;;;;;4990927;28;20056;-79
2022/03/18 01:28:30;;;;;;;19.75;10.68;;;2.00;99.90;;;;;;4987889;28;20060;-79
2022/03/18 01:30:56;;;;;;;19.15;11.80;;;2.00;99.90;;;;;;4975275;28;20398;-78
2022/03/18 01:33:21;;;;;;;22.75;11.25;;;1.90;99.90;;;;;;5006446;28;20120;-78
2022/03/18 01:35:47;;;;;;;21.42;12.07;;;2.00;99.90;;;;;;4992314;28;20041;-78
2022/03/18 01:38:12;;;;;;;20.65;12.20;;;2.00;99.90;;;;;;5004459;28;20057;-78
2022/03/18 01:40:38;;;;;;;22.98;13.00;;;1.80;99.90;;;;;;4984418;28;20049;-78
2022/03/18 01:43:09;;;;;;;26.52;13.25;;;1.60;99.90;;;;;;5007675;28;20392;-78
2022/03/18 01:45:35;;;;;;;27.02;12.00;;;1.60;99.90;;;;;;4974954;28;20467;-78
2022/03/18 01:48:01;;;;;;;25.73;12.13;;;1.50;99.90;;;;;;4994252;28;20124;-78
2022/03/18 01:50:27;;;;;;;23.75;12.50;;;1.40;99.90;;;;;;5008659;28;20116;-79
2022/03/18 01:52:52;;;;;;;19.35;11.77;;;1.50;99.90;;;;;;4974310;28;20025;-79
2022/03/18 01:55:19;;;;;;;19.77;10.57;;;1.50;99.90;;;;;;4977632;28;20116;-77
2022/03/18 01:57:45;;;;;;;24.80;11.07;;;1.40;99.90;;;;;;4993247;28;20032;-78
2022/03/18 02:00:11;;;;;;;22.33;11.70;;;1.60;99.90;;;;;;4991477;28;20030;-78
2022/03/18 02:02:36;;;;;;;20.70;10.82;;;1.70;99.90;;;;;;4988151;28;20038;-78
2022/03/18 02:05:04;;;;;;;15.68;9.57;;;1.70;99.90;;;;;;4992049;28;20689;-79
2022/03/18 02:07:30;;;;;;;18.33;9.63;;;1.80;99.90;;;;;;4974100;28;20501;-77
2022/03/18 02:09:55;;;;;;;19.45;10.57;;;1.90;99.90;;;;;;4973441;28;20040;-78
2022/03/18 02:12:21;;;;;;;24.38;11.52;;;1.80;99.90;;;;;;5008606;28;20079;-78
2022/03/18 02:14:46;;;;;;;18.60;9.75;;;1.80;99.90;;;;;;4993968;28;20026;-78
2022/03/18 02:17:13;;;;;;;18.63;10.05;;;1.60;99.90;;;;;;4990415;28;20033;-77
2022/03/18 02:19:40;;;;;;;16.58;10.45;;;1.40;99.90;;;;;;5007340;28;20040;-79
2022/03/18 02:22:15;;;;;;;26.50;10.85;;;1.40;99.90;;;;;;4975605;28;20497;-79
2022/03/18 02:24:41;;;;;;;15.53;8.63;;;1.30;99.90;;;;;;5004380;28;20040;-78
2022/03/18 02:27:07;;;;;;;18.90;10.10;;;1.50;99.90;;;;;;4973170;28;20087;-79
2022/03/18 02:29:33;;;;;;;16.85;10.82;;;1.80;99.90;;;;;;4971767;28;20034;-77
2022/03/18 02:31:58;;;;;;;22.75;10.40;;;1.50;99.90;;;;;;4986608;28;20040;-78
2022/03/18 02:34:24;;;;;;;16.40;10.70;;;1.40;99.90;;;;;;4985738;28;20052;-78
2022/03/18 02:36:50;;;;;;;20.45;10.73;;;1.20;99.90;;;;;;4985672;28;20061;-78
2022/03/18 02:39:15;;;;;;;18.48;10.00;;;1.10;99.90;;;;;;4987234;28;20053;-77
2022/03/18 02:41:41;;;;;;;21.05;10.75;;;1.10;99.90;;;;;;5004654;28;20286;-77
2022/03/18 02:44:07;;;;;;;19.20;9.65;;;1.20;99.90;;;;;;4993023;28;20029;-78
2022/03/18 02:46:32;;;;;;;18.00;8.88;;;1.50;99.90;;;;;;4986178;28;20025;-78
2022/03/18 02:49:05;;;;;;;20.30;10.75;;;1.60;99.90;;;;;;4991514;28;20030;-77
2022/03/18 02:51:30;;;;;;;16.45;9.93;;;1.50;99.90;;;;;;4970093;28;20080;-78
2022/03/18 02:53:56;;;;;;;20.13;10.25;;;1.30;99.90;;;;;;4998148;28;20501;-77
2022/03/18 02:56:22;;;;;;;21.95;10.07;;;1.10;99.90;;;;;;5007143;28;20033;-78
2022/03/18 02:58:47;;;;;;;20.38;9.52;;;1.10;99.90;;;;;;4991688;28;20037;-78
2022/03/18 03:01:13;;;;;;;24.48;9.02;;;1.10;99.90;;;;;;5005649;28;20515;-78
2022/03/18 03:03:38;;;;;;;22.25;10.00;;;1.30;99.90;;;;;;4993089;28;20056;-78
2022/03/18 03:08:48;;;;;;;20.52;10.45;;;1.10;99.90;;;;;;5007552;28;20414;-77
2022/03/18 03:11:13;;;;;;;22.13;11.10;;;1.00;99.90;;;;;;4990591;28;20026;-78
2022/03/18 03:13:39;;;;;;;21.75;10.93;;;0.80;99.90;;;;;;4990949;28;20516;-77
2022/03/18 03:16:05;;;;;;;24.27;10.60;;;0.60;99.90;;;;;;4971702;28;20033;-77
2022/03/18 03:18:31;;;;;;;22.05;11.48;;;0.50;99.90;;;;;;4988178;28;22848;-76
2022/03/18 03:20:57;;;;;;;17.35;10.32;;;0.40;99.90;;;;;;4991422;28;20041;-78
2022/03/18 03:23:25;;;;;;;22.52;12.90;;;0.40;99.90;;;;;;5000996;28;20080;-78
2022/03/18 03:25:52;;;;;;;17.83;10.35;;;0.40;99.90;;;;;;5000174;28;20057;-77
2022/03/18 03:28:18;;;;;;;23.80;11.55;;;0.40;99.90;;;;;;4974518;28;20058;-79
2022/03/18 03:30:44;;;;;;;22.50;12.10;;;0.40;99.90;;;;;;4980588;28;20053;-79
2022/03/18 03:33:10;;;;;;;16.80;11.25;;;0.40;99.90;;;;;;4987847;28;20095;-79
2022/03/18 03:35:36;;;;;;;21.80;12.13;;;0.30;99.90;;;;;;4975586;28;20537;-78
2022/03/18 03:38:01;;;;;;;21.85;10.73;;;0.40;99.90;;;;;;4990367;28;20126;-78
2022/03/18 03:40:27;;;;;;;19.50;10.68;;;0.30;99.90;;;;;;4986804;28;20333;-79
2022/03/18 03:42:53;;;;;;;19.95;11.82;;;0.30;99.90;;;;;;4987610;28;20034;-80
2022/03/18 03:45:18;;;;;;;17.58;10.95;;;0.30;99.90;;;;;;4970603;28;20096;-81
2022/03/18 03:47:44;;;;;;;22.38;11.27;;;0.30;99.90;;;;;;4987350;28;20032;-80
2022/03/18 03:50:09;;;;;;;24.77;11.00;;;0.30;99.90;;;;;;4976505;28;20037;-81
2022/03/18 03:52:35;;;;;;;19.67;10.88;;;0.30;99.90;;;;;;5005455;28;20374;-81
2022/03/18 03:55:04;;;;;;;22.60;10.30;;;0.30;99.90;;;;;;4989408;28;21688;-80
2022/03/18 03:57:29;;;;;;;20.35;10.65;;;0.20;99.90;;;;;;4978066;28;20544;-80
2022/03/18 03:59:55;;;;;;;21.48;11.10;;;0.20;99.90;;;;;;4982778;28;20018;-80
2022/03/18 04:02:21;;;;;;;21.23;10.85;;;0.20;99.90;;;;;;4991412;28;20058;-78
2022/03/18 04:04:49;;;;;;;21.92;10.60;;;0.10;99.90;;;;;;5009389;28;20449;-79
2022/03/18 04:07:15;;;;;;;23.98;10.65;;;0.10;99.90;;;;;;4989191;28;20045;-79
2022/03/18 04:09:41;;;;;;;21.60;10.57;;;0.20;99.90;;;;;;5004643;28;20042;-78
2022/03/18 04:12:07;;;;;;;18.10;10.63;;;0.20;99.90;;;;;;4989837;28;20021;-78
2022/03/18 04:14:32;;;;;;;21.77;10.77;;;0.20;99.90;;;;;;4992662;28;20038;-78
2022/03/18 04:16:58;;;;;;;20.15;10.55;;;0.30;99.90;;;;;;4982203;28;20477;-78
2022/03/18 04:19:23;;;;;;;15.55;9.75;;;0.30;99.90;;;;;;5004745;28;20033;-77
2022/03/18 04:21:49;;;;;;;23.05;11.27;;;0.30;99.90;;;;;;4993317;28;20033;-79
2022/03/18 04:24:15;;;;;;;23.90;10.35;;;0.30;99.90;;;;;;4988021;28;20052;-79
2022/03/18 04:26:41;;;;;;;20.10;11.85;;;0.20;99.90;;;;;;4971473;28;20520;-79
2022/03/18 04:29:08;;;;;;;19.98;11.13;;;0.10;99.90;;;;;;4983920;28;20025;-78
2022/03/18 04:31:33;;;;;;;17.60;10.73;;;0.10;99.90;;;;;;4990517;28;20040;-78
2022/03/18 04:33:59;;;;;;;18.67;9.70;;;0.10;99.90;;;;;;4986372;28;20030;-78
2022/03/18 04:36:24;;;;;;;18.92;10.07;;;0.10;99.90;;;;;;4972756;28;20068;-78
2022/03/18 04:38:50;;;;;;;16.83;10.52;;;0.10;99.90;;;;;;4987715;28;20056;-79
2022/03/18 04:41:16;;;;;;;17.35;10.32;;;0.20;99.90;;;;;;4971464;28;20073;-76
2022/03/18 04:43:41;;;;;;;24.05;10.32;;;0.00;99.90;;;;;;5005257;28;20040;-77
2022/03/18 04:46:07;;;;;;;18.70;9.30;;;-0.10;99.90;;;;;;4990035;28;20022;-76
2022/03/18 04:48:32;;;;;;;18.88;9.88;;;0.10;99.90;;;;;;4972130;28;20048;-76
2022/03/18 04:50:58;;;;;;;20.05;10.20;;;0.10;99.90;;;;;;4985144;28;20134;-76
2022/03/18 04:53:23;;;;;;;22.25;10.50;;;0.20;99.90;;;;;;4997541;28;20388;-76
2022/03/18 04:55:49;;;;;;;19.67;10.30;;;0.20;99.90;;;;;;4987368;28;20574;-76
2022/03/18 04:58:15;;;;;;;25.83;10.15;;;0.10;99.90;;;;;;4975084;28;20047;-79
2022/03/18 05:00:40;;;;;;;18.90;10.10;;;0.20;99.90;;;;;;5004391;28;20080;-79
2022/03/18 05:03:06;;;;;;;21.05;9.80;;;0.10;99.90;;;;;;4977608;28;20057;-80
2022/03/18 05:05:32;;;;;;;19.75;10.40;;;0.10;99.90;;;;;;4977963;28;20120;-79
2022/03/18 05:07:58;;;;;;;21.33;10.63;;;0.10;99.90;;;;;;4988972;28;20569;-79
2022/03/18 05:10:24;;;;;;;19.85;10.15;;;0.00;99.90;;;;;;4993879;28;20039;-78
2022/03/18 05:12:50;;;;;;;20.38;10.65;;;-0.10;99.90;;;;;;4992170;28;20032;-78
2022/03/18 05:15:16;;;;;;;23.67;11.27;;;-0.20;99.90;;;;;;4989719;28;20522;-79
2022/03/18 05:17:48;;;;;;;18.27;11.45;;;-0.20;99.90;;;;;;4994330;28;20525;-79
2022/03/18 05:20:14;;;;;;;16.92;10.95;;;-0.30;99.90;;;;;;4994531;28;20029;-78
2022/03/18 05:22:39;;;;;;;23.38;11.15;;;-0.10;99.90;;;;;;4965618;28;20512;-78
2022/03/18 05:25:05;;;;;;;21.00;10.32;;;-0.20;99.90;;;;;;4992575;28;20031;-78
2022/03/18 05:27:31;;;;;;;21.92;11.85;;;-0.10;99.90;;;;;;4989078;28;20058;-78
2022/03/18 05:29:56;;;;;;;18.95;11.23;;;-0.10;99.90;;;;;;4991183;28;20099;-78
2022/03/18 05:32:22;;;;;;;28.58;12.20;;;-0.20;99.90;;;;;;4995038;28;20029;-78
2022/03/18 05:34:48;;;;;;;23.77;11.50;;;-0.20;99.90;;;;;;4994312;28;20045;-78
2022/03/18 05:37:15;;;;;;;22.77;12.07;;;-0.30;99.90;;;;;;4978970;28;20029;-79
2022/03/18 05:39:41;;;;;;;22.55;12.80;;;-0.30;99.90;;;;;;4990267;28;20028;-78
2022/03/18 05:42:07;;;;;;;20.20;12.30;;;-0.40;99.90;;;;;;4978189;28;20083;-79
2022/03/18 05:44:33;;;;;;;24.48;11.38;;;-0.30;99.90;;;;;;4987768;28;20505;-79
2022/03/18 05:46:58;;;;;;;19.55;11.77;;;-0.20;99.90;;;;;;4974690;28;20037;-78
2022/03/18 05:49:24;;;;;;;17.80;11.32;;;-0.10;99.90;;;;;;5005067;28;20473;-80
2022/03/18 05:51:49;;;;;;;19.80;11.27;;;-0.10;99.90;;;;;;4995394;28;20033;-80
2022/03/18 05:54:15;;;;;;;15.90;9.55;;;-0.10;99.90;;;;;;4994834;28;20060;-79
2022/03/18 05:56:53;;;;;;;22.08;11.82;;;0.00;99.90;;;;;;4975385;28;20065;-80
2022/03/18 05:59:22;;;;;;;22.45;11.60;;;0.00;99.90;;;;;;4975173;28;20164;-77
2022/03/18 06:01:47;;;;;;;22.23;11.15;;;0.00;99.90;;;;;;4968191;28;20037;-79
2022/03/18 06:04:14;;;;;;;14.20;8.43;;;0.00;99.90;;;;;;4979272;28;20385;-78
2022/03/18 06:06:40;;;;;;;17.80;10.95;;;0.00;99.90;;;;;;4977783;28;20036;-78
2022/03/18 06:11:51;;;;;;;21.45;11.43;;;-0.10;99.90;;;;;;4992723;28;20037;-81
2022/03/18 06:14:18;;;;;;;23.02;11.38;;;-0.30;99.90;;;;;;4979118;28;20025;-81
2022/03/18 06:16:44;;;;;;;20.90;10.90;;;-0.30;99.90;;;;;;4987880;28;20044;-80
2022/03/18 06:19:10;;;;;;;18.08;11.48;;;-0.30;99.90;;;;;;4966043;28;20041;-80
2022/03/18 06:21:35;;;;;;;17.23;11.02;;;-0.20;99.90;;;;;;4987841;28;20049;-79
2022/03/18 06:24:01;;;;;;;21.65;12.30;;;-0.20;99.90;;;;;;4988152;28;20041;-80
2022/03/18 06:26:26;;;;;;;28.52;13.15;;;-0.20;99.90;;;;;;4998569;28;20079;-78
2022/03/18 06:28:52;;;;;;;22.27;12.20;;;-0.20;99.90;;;;;;4972709;28;20427;-80
2022/03/18 06:31:17;;;;;;;21.83;12.02;;;0.00;99.90;;;;;;4988039;28;20037;-80
2022/03/18 06:33:46;;;;;;;18.77;11.23;;;0.10;99.90;;;;;;4984833;28;20041;-80
2022/03/18 06:36:12;;;;;;;21.17;12.18;;;0.00;99.90;;;;;;4994876;28;20488;-80
2022/03/18 06:38:37;;;;;;;17.08;11.35;;;0.10;99.90;;;;;;4990946;28;20065;-81
2022/03/18 06:41:03;;;;;;;21.25;12.82;;;0.00;99.90;;;;;;4983615;28;20037;-81
2022/03/18 06:43:28;;;;;;;24.45;13.25;;;0.10;99.90;;;;;;4990975;28;20034;-80
2022/03/18 06:45:54;;;;;;;21.45;12.68;;;0.20;99.90;;;;;;4983314;28;20092;-81
2022/03/18 06:48:19;;;;;;;29.42;15.70;;;0.40;99.90;;;;;;4982584;28;20037;-81
2022/03/18 06:50:45;;;;;;;26.35;14.63;;;0.30;99.90;;;;;;4975692;28;20033;-79
2022/03/18 06:53:11;;;;;;;31.88;16.65;;;0.30;99.90;;;;;;4978044;28;20025;-81
2022/03/18 06:55:36;;;;;;;26.13;14.73;;;0.40;99.90;;;;;;4989233;28;20486;-80
2022/03/18 06:58:02;;;;;;;27.58;14.57;;;0.50;99.90;;;;;;4992067;28;20060;-79
2022/03/18 07:00:28;;;;;;;28.00;14.27;;;0.60;99.90;;;;;;4979615;28;20038;-81
2022/03/18 07:02:53;;;;;;;21.95;12.98;;;0.70;99.90;;;;;;4972795;28;20069;-79
2022/03/18 07:05:19;;;;;;;22.83;11.93;;;0.90;99.90;;;;;;4974419;28;20034;-80
2022/03/18 07:07:45;;;;;;;19.45;12.43;;;1.10;99.90;;;;;;4966864;28;20026;-80
2022/03/18 07:10:12;;;;;;;17.83;11.85;;;1.20;99.90;;;;;;4994287;28;20040;-81
2022/03/18 07:12:38;;;;;;;20.67;10.73;;;1.10;99.90;;;;;;4967812;28;20382;-81
2022/03/18 07:15:05;;;;;;;14.13;9.10;;;1.50;99.90;;;;;;4977720;28;20053;-81
2022/03/18 07:20:14;;;;;;;19.52;11.00;;;2.10;99.90;;;;;;4989253;28;20032;-81
2022/03/18 07:22:40;;;;;;;18.73;11.43;;;2.10;99.90;;;;;;4974419;28;20026;-83
2022/03/18 07:25:06;;;;;;;23.63;11.52;;;2.10;99.90;;;;;;4987542;28;20404;-82
2022/03/18 07:27:32;;;;;;;22.70;11.35;;;2.20;99.90;;;;;;4968367;28;20121;-79
2022/03/18 07:29:58;;;;;;;22.25;11.68;;;2.10;99.90;;;;;;5003578;28;20117;-83
2022/03/18 07:32:23;;;;;;;25.90;13.55;;;2.20;99.90;;;;;;4993063;28;20080;-81
2022/03/18 07:34:49;;;;;;;24.23;14.13;;;2.20;99.90;;;;;;4982002;28;20044;-79
2022/03/18 07:37:14;;;;;;;30.75;14.57;;;2.30;99.90;;;;;;4980820;28;20028;-79
2022/03/18 07:39:40;;;;;;;36.78;13.88;;;2.30;99.90;;;;;;4969458;28;20033;-80
2022/03/18 07:42:06;;;;;;;19.38;12.30;;;2.30;99.90;;;;;;4971325;28;20022;-79
2022/03/18 07:44:31;;;;;;;24.08;12.93;;;2.40;99.90;;;;;;4984018;28;20042;-79
2022/03/18 07:46:57;;;;;;;31.75;14.25;;;2.50;99.90;;;;;;4974215;28;20033;-81
2022/03/18 07:49:22;;;;;;;31.88;13.00;;;2.40;99.90;;;;;;4966248;28;20056;-79
2022/03/18 07:51:48;;;;;;;43.90;14.52;;;2.50;99.90;;;;;;4982686;28;20248;-80
2022/03/18 07:54:13;;;;;;;21.00;13.48;;;2.70;99.90;;;;;;4968259;28;20026;-80
2022/03/18 07:56:39;;;;;;;20.77;9.45;;;3.20;99.90;;;;;;5001640;28;20030;-80
2022/03/18 07:59:04;;;;;;;23.98;11.45;;;3.50;99.90;;;;;;5003182;28;20029;-80
2022/03/18 08:01:30;;;;;;;31.58;13.48;;;3.70;99.90;;;;;;4997447;28;20467;-79
2022/03/18 08:03:55;;;;;;;21.30;11.82;;;3.50;99.90;;;;;;4984680;28;20467;-79
2022/03/18 08:06:21;;;;;;;27.90;12.77;;;3.80;99.90;;;;;;4965685;28;20037;-79
2022/03/18 08:08:47;;;;;;;18.02;12.43;;;4.30;99.90;;;;;;4990341;28;20037;-80
2022/03/18 08:11:13;;;;;;;22.92;12.82;;;4.50;99.90;;;;;;4982137;28;20408;-79
2022/03/18 08:13:39;;;;;;;27.42;14.30;;;4.20;99.90;;;;;;4980952;28;20068;-79
2022/03/18 08:16:12;;;;;;;35.67;15.38;;;3.80;99.90;;;;;;4986816;28;20029;-79
2022/03/18 08:18:37;;;;;;;25.13;13.27;;;4.00;99.90;;;;;;4991921;28;20404;-79
2022/03/18 08:21:09;;;;;;;22.85;14.00;;;4.60;99.90;;;;;;5005791;28;20032;-79
2022/03/18 08:23:35;;;;;;;25.30;14.85;;;4.50;99.90;;;;;;4992316;28;20041;-79
2022/03/18 08:26:00;;;;;;;23.00;13.32;;;5.00;99.90;;;;;;4973980;28;20102;-79
2022/03/18 08:28:26;;;;;;;26.40;12.93;;;4.80;99.90;;;;;;4987889;28;20096;-79
2022/03/18 08:30:51;;;;;;;24.05;12.52;;;5.10;99.90;;;;;;4987096;28;20033;-79
2022/03/18 08:33:17;;;;;;;24.55;12.77;;;5.40;99.90;;;;;;4988262;28;20029;-79
2022/03/18 08:35:42;;;;;;;21.33;11.13;;;5.50;99.90;;;;;;4980599;28;20476;-79
2022/03/18 08:38:09;;;;;;;26.23;12.10;;;5.70;99.90;;;;;;4978971;28;20488;-80
2022/03/18 08:40:36;;;;;;;22.13;11.07;;;6.00;99.90;;;;;;4985321;28;20038;-79
2022/03/18 08:43:04;;;;;;;19.83;10.10;;;5.90;99.90;;;;;;4985907;28;20037;-79
2022/03/18 08:45:30;;;;;;;16.25;8.50;;;6.10;99.90;;;;;;4973700;28;20091;-80
2022/03/18 08:47:56;;;;;;;13.95;8.57;;;6.50;99.90;;;;;;4992999;28;20033;-78
2022/03/18 08:50:22;;;;;;;19.42;8.40;;;6.30;99.90;;;;;;4994602;28;20036;-80
2022/03/18 08:52:49;;;;;;;16.00;7.22;;;6.40;99.90;;;;;;5002857;28;20034;-79
2022/03/18 08:55:15;;;;;;;13.50;5.93;;;5.70;99.90;;;;;;4972910;28;20079;-79
2022/03/18 08:57:40;;;;;;;8.93;4.50;;;6.20;99.90;;;;;;4988172;28;20466;-79
2022/03/18 09:00:08;;;;;;;9.65;4.07;;;5.80;99.90;;;;;;5006195;28;20040;-78
2022/03/18 09:02:35;;;;;;;15.32;4.82;;;5.60;99.90;;;;;;4992108;28;20577;-79
2022/03/18 09:05:00;;;;;;;13.70;4.43;;;5.90;99.90;;;;;;4989481;28;20038;-79
2022/03/18 09:07:26;;;;;;;10.93;4.28;;;6.00;99.90;;;;;;5004867;28;20037;-79
2022/03/18 09:09:51;;;;;;;10.85;4.53;;;6.30;99.90;;;;;;4973483;28;20392;-79
2022/03/18 09:12:18;;;;;;;14.60;4.82;;;6.40;99.90;;;;;;4970693;28;20032;-78
2022/03/18 09:14:43;;;;;;;13.18;4.80;;;6.20;99.90;;;;;;4991988;28;20040;-79
2022/03/18 09:17:09;;;;;;;9.82;4.40;;;6.60;99.90;;;;;;4990725;28;20380;-79
2022/03/18 09:19:37;;;;;;;12.13;4.43;;;7.00;99.90;;;;;;4976005;28;20026;-79
2022/03/18 09:22:06;;;;;;;9.65;4.95;;;6.60;99.90;;;;;;5008764;28;20025;-80
2022/03/18 09:24:33;;;;;;;14.68;4.57;;;6.50;99.90;;;;;;4989788;28;20619;-78
2022/03/18 09:26:58;;;;;;;10.10;4.50;;;6.30;99.90;;;;;;4986890;28;20042;-78
2022/03/18 09:29:26;;;;;;;14.63;5.07;;;6.40;99.90;;;;;;4989069;28;20030;-79
2022/03/18 09:31:52;;;;;;;10.20;4.72;;;6.50;99.90;;;;;;4982083;28;20029;-79
2022/03/18 09:34:22;;;;;;;10.77;4.97;;;7.20;99.90;;;;;;4985400;28;20103;-79
2022/03/18 09:36:48;;;;;;;12.57;4.57;;;7.60;99.90;;;;;;4989037;28;20045;-79
2022/03/18 09:39:14;;;;;;;13.00;4.57;;;7.70;99.90;;;;;;4978750;28;20030;-79
2022/03/18 09:41:39;;;;;;;9.05;3.60;;;7.50;99.90;;;;;;4975424;28;20033;-79
2022/03/18 09:44:05;;;;;;;14.18;3.72;;;8.00;99.90;;;;;;4999767;28;20100;-78
2022/03/18 09:46:30;;;;;;;7.82;2.38;;;8.10;99.90;;;;;;5000664;28;20433;-79
2022/03/18 09:48:56;;;;;;;8.45;2.70;;;7.20;99.90;;;;;;5001033;28;20048;-78
2022/03/18 09:51:21;;;;;;;9.18;3.50;;;7.00;99.90;;;;;;4976085;28;20029;-78
2022/03/18 09:53:47;;;;;;;6.03;2.33;;;7.40;99.90;;;;;;4974061;28;20538;-80
2022/03/18 09:56:12;;;;;;;7.05;2.90;;;7.00;99.90;;;;;;4971126;28;20049;-79
2022/03/18 09:58:38;;;;;;;7.40;2.58;;;7.30;99.90;;;;;;4968346;28;20084;-78
2022/03/18 10:01:12;;;;;;;7.63;3.05;;;7.30;99.90;;;;;;5002403;28;20091;-80
2022/03/18 10:03:41;;;;;;;9.52;2.78;;;7.30;99.90;;;;;;4988384;28;20042;-81
2022/03/18 10:06:07;;;;;;;12.98;3.28;;;8.10;99.90;;;;;;4985687;28;20033;-80
2022/03/18 10:08:37;;;;;;;7.20;4.28;;;8.50;99.90;;;;;;4988927;28;20068;-81
2022/03/18 10:11:13;;;;;;;9.40;4.03;;;8.60;99.90;;;;;;5022074;28;20642;-82
2022/03/18 10:13:59;;;;;;;6.57;2.90;;;8.40;99.90;;;;;;5000060;28;20037;-81
2022/03/18 10:16:38;;;;;;;;;;;8.60;99.90;;;;;;5006536;28;20033;-81
2022/03/18 10:19:17;;;;;;;11.45;3.83;;;8.70;99.90;;;;;;4983942;28;20051;-81
2022/03/18 10:22:09;;;;;;;6.13;3.95;;;8.80;99.90;;;;;;5000243;28;20501;-80
2022/03/18 10:24:37;;;;;;;8.35;3.30;;;8.60;99.90;;;;;;4987081;28;20037;-79
2022/03/18 10:27:14;;;;;;;11.52;4.18;;;9.10;99.90;;;;;;4985865;28;20421;-78
2022/03/18 10:29:43;;;;;;;8.82;4.55;;;8.70;99.90;;;;;;5020130;28;20561;-79
2022/03/18 10:32:09;;;;;;;9.70;3.80;;;8.70;99.90;;;;;;5007479;28;20464;-79
2022/03/18 10:37:23;;;;;;;11.55;3.42;;;9.20;99.90;;;;;;4995427;28;20044;-79
2022/03/18 10:39:50;;;;;;;10.23;3.72;;;9.40;99.90;;;;;;4974990;28;20034;-79
2022/03/18 10:42:20;;;;;;;9.25;3.60;;;9.40;99.90;;;;;;5018880;28;20033;-80
2022/03/18 10:44:59;;;;;;;11.05;4.13;;;9.20;99.90;;;;;;4999390;28;20029;-80
2022/03/18 10:47:27;;;;;;;9.75;3.60;;;9.20;99.90;;;;;;4985303;28;20084;-80
2022/03/18 10:50:11;;;;;;;6.82;3.53;;;9.40;99.90;;;;;;5003763;28;20034;-79
2022/03/18 10:52:37;;;;;;;6.93;3.60;;;9.60;99.90;;;;;;4992343;28;20466;-78
2022/03/18 10:55:19;;;;;;;9.40;3.70;;;10.30;99.90;;;;;;5013055;28;20028;-79
2022/03/18 10:57:51;;;;;;;10.30;4.07;;;9.60;99.90;;;;;;4987344;28;20121;-79
2022/03/18 11:00:23;;;;;;;9.88;4.13;;;9.30;99.90;;;;;;5020235;28;20029;-79
2022/03/18 11:02:50;;;;;;;10.02;4.68;;;9.20;99.90;;;;;;5001855;28;20109;-79
2022/03/18 11:05:17;;;;;;;8.23;3.55;;;9.20;99.90;;;;;;4991870;28;20096;-81
2022/03/18 11:07:43;;;;;;;7.20;4.22;;;10.40;99.90;;;;;;5015807;28;20034;-80
2022/03/18 11:13:01;;;;;;;8.25;3.63;;;10.00;99.90;;;;;;5003693;28;20516;-80
2022/03/18 11:15:27;;;;;;;9.65;3.78;;;10.30;99.90;;;;;;4988390;28;20044;-80
2022/03/18 11:17:55;;;;;;;9.52;4.60;;;10.80;99.90;;;;;;4983140;28;20038;-80
2022/03/18 11:20:23;;;;;;;10.15;4.03;;;10.40;99.90;;;;;;4977524;28;20141;-80
2022/03/18 11:22:49;;;;;;;5.57;3.25;;;10.90;99.90;;;;;;4989984;28;20045;-80
2022/03/18 11:25:15;;;;;;;10.45;3.83;;;11.60;99.90;;;;;;4984634;28;20064;-81
2022/03/18 11:27:44;;;;;;;14.00;4.15;;;11.70;99.90;;;;;;4983454;28;20553;-80
2022/03/18 11:30:34;;;;;;;10.82;4.45;;;11.10;99.90;;;;;;4981990;28;20075;-80
2022/03/18 11:33:06;;;;;;;6.15;3.90;;;10.60;99.90;;;;;;4991700;28;20034;-79
2022/03/18 11:35:50;;;;;;;11.20;4.25;;;10.40;99.90;;;;;;5007196;28;20077;-80
2022/03/18 11:38:16;;;;;;;8.70;3.60;;;10.40;99.90;;;;;;5017524;28;20096;-80
2022/03/18 11:40:51;;;;;;;12.35;4.82;;;10.40;99.90;;;;;;4999681;28;20513;-80
2022/03/18 11:43:35;;;;;;;7.47;3.72;;;10.80;99.90;;;;;;4989442;28;20033;-80
2022/03/18 11:46:13;;;;;;;10.88;4.07;;;10.80;99.90;;;;;;5003420;28;20037;-79
2022/03/18 11:48:52;;;;;;;7.75;3.47;;;11.50;99.90;;;;;;5008184;28;20048;-78
2022/03/18 11:51:30;;;;;;;6.05;3.78;;;10.70;99.90;;;;;;4999270;28;20030;-79
2022/03/18 11:53:57;;;;;;;8.00;3.47;;;11.00;99.90;;;;;;5002970;28;20551;-79
2022/03/18 11:56:41;;;;;;;6.22;3.42;;;11.50;99.90;;;;;;4988121;28;20026;-78
2022/03/18 11:59:31;;;;;;;8.32;3.60;;;11.70;99.90;;;;;;4977893;28;20033;-78
2022/03/18 12:02:09;;;;;;;5.97;3.58;;;11.20;99.90;;;;;;4994802;28;20220;-80
2022/03/18 12:04:38;;;;;;;6.72;3.30;;;11.00;99.90;;;;;;4987048;28;20038;-79
2022/03/18 12:07:10;;;;;;;5.88;2.92;;;10.70;99.90;;;;;;5008221;28;20504;-79
2022/03/18 12:10:05;;;;;;;8.55;3.35;;;11.30;99.90;;;;;;5001576;28;20049;-79
2022/03/18 12:12:39;;;;;;;5.78;2.97;;;12.20;99.90;;;;;;4983911;28;20034;-80
2022/03/18 12:15:09;;;;;;;7.28;2.95;;;12.40;99.90;;;;;;5003795;28;20040;-79
2022/03/18 12:17:45;;;;;;;8.88;3.60;;;13.90;99.90;;;;;;4997252;28;20408;-79
2022/03/18 12:20:13;;;;;;;6.88;3.15;;;13.50;99.90;;;;;;4982387;28;20172;-80
2022/03/18 12:22:40;;;;;;;10.48;3.53;;;14.00;99.40;;;;;;4967022;28;20589;-79
2022/03/18 12:25:08;;;;;;;4.68;2.80;;;14.20;99.90;;;;;;4987143;28;20033;-80
2022/03/18 12:27:39;;;;;;;5.65;3.45;;;13.40;99.90;;;;;;4976147;28;20332;-80
2022/03/18 12:30:09;;;;;;;8.70;4.07;;;13.90;99.50;;;;;;5008228;28;20080;-79
2022/03/18 12:33:10;;;;;;;6.68;3.17;;;13.50;99.90;;;;;;5007617;28;20466;-80
2022/03/18 12:35:37;;;;;;;5.63;3.13;;;13.60;99.90;;;;;;4978146;28;20401;-79
2022/03/18 12:38:10;;;;;;;7.35;3.28;;;14.20;96.10;;;;;;5007397;28;20029;-79
2022/03/18 12:40:40;;;;;;;11.90;3.85;;;13.10;99.90;;;;;;5002634;28;20062;-80
2022/03/18 12:43:05;;;;;;;6.22;3.40;;;13.00;98.30;;;;;;5005841;28;20041;-80
2022/03/18 12:45:44;;;;;;;7.00;3.10;;;12.90;99.40;;;;;;4988960;28;20034;-80
2022/03/18 12:48:22;;;;;;;6.10;3.50;;;12.60;99.10;;;;;;4990534;28;20026;-80
2022/03/18 12:50:52;;;;;;;7.75;3.83;;;13.40;99.10;;;;;;4975841;28;20521;-80
2022/03/18 12:53:25;;;;;;;9.75;3.95;;;13.00;99.90;;;;;;4627384;28;9999798;-80
2022/03/18 12:55:58;;;;;;;7.72;3.88;;;12.20;99.90;;;;;;4971331;28;20036;-79
2022/03/18 12:58:37;;;;;;;8.23;3.65;;;12.00;99.90;;;;;;4985479;28;20318;-80
2022/03/18 13:01:03;;;;;;;10.32;3.63;;;13.00;99.90;;;;;;4985504;28;20219;-81